Home > Products > Valid Products > TAF

000
FTUS44 KLUB 010610 AAA
TAFCDS
TAF AMD
KCDS 010610Z 0106/0206 12008KT P6SM SCT025
     FM010630 30004KT P6SM -SHRA SCT025
     FM011000 VRB20KT P6SM -TSRA BKN025CB
     FM011300 17006KT P6SM SCT050=



000
FTUS44 KLUB 010520
TAFCDS
TAF
KCDS 010520Z 0106/0206 12008KT P6SM SCT025
     FM011000 VRB20KT P6SM -TSRA BKN025CB
     FM011300 17006KT P6SM SCT050=



000
FTUS44 KLUB 010520
TAFCDS
TAF
KCDS 010520Z 0106/0206 12008KT P6SM SCT025
     FM011000 VRB20KT P6SM -TSRA BKN025CB
     FM011300 17006KT P6SM SCT050=



000
FTUS44 KLUB 010520
TAFLBB
TAF
KLBB 010520Z 0106/0206 09010KT P6SM BKN150
     FM010800 12006KT 6SM BR SCT004
     FM011400 16010KT P6SM SCT050=



000
FTUS44 KLUB 010520
TAFLBB
TAF
KLBB 010520Z 0106/0206 09010KT P6SM BKN150
     FM010800 12006KT 6SM BR SCT004
     FM011400 16010KT P6SM SCT050=



000
FTUS44 KLUB 312332
TAFCDS
TAF
KCDS 312332Z 0100/0124 07010KT P6SM SCT060
     FM010500 10006KT 5SM BR SCT006
     FM011400 16006KT P6SM SCT050=



000
FTUS44 KLUB 312332
TAFLBB
TAF
KLBB 312332Z 0100/0124 06011KT P6SM -TSRA SCT050CB
     FM010030 06009KT P6SM SCT050
     FM010700 12006KT 5SM BR SCT004
     FM011400 14010KT P6SM SCT050=



000
FTUS44 KLUB 312332
TAFCDS
TAF
KCDS 312332Z 0100/0124 07010KT P6SM SCT060
     FM010500 10006KT 5SM BR SCT006
     FM011400 16006KT P6SM SCT050=



000
FTUS44 KLUB 312332
TAFLBB
TAF
KLBB 312332Z 0100/0124 06011KT P6SM -TSRA SCT050CB
     FM010030 06009KT P6SM SCT050
     FM010700 12006KT 5SM BR SCT004
     FM011400 14010KT P6SM SCT050=



000
FTUS44 KLUB 312150 AAB
TAFLBB
TAF AMD
KLBB 312150Z 3122/0118 02011KT P6SM TSRA SCT050CB
     FM312330 06009KT P6SM SCT050
     FM010700 18006KT 2SM BR BKN007 OVC060
     FM011400 18006KT P6SM BKN035 OVC080=



000
FTUS44 KLUB 312001 AAA
TAFLBB
TAF AMD
KLBB 312001Z 3120/0118 02011KT P6SM SCT070
      TEMPO 3120/3122 VRB20G30KT TSRA BKN050CB
     FM010700 18006KT 2SM BR BKN007 OVC060
     FM011400 18006KT P6SM BKN035 OVC080=



000
FTUS44 KLUB 312001 AAA
TAFLBB
TAF AMD
KLBB 312001Z 3120/0118 02011KT P6SM SCT070
      TEMPO 3120/3122 VRB20G30KT TSRA BKN050CB
     FM010700 18006KT 2SM BR BKN007 OVC060
     FM011400 18006KT P6SM BKN035 OVC080=



000
FTUS44 KLUB 311736
TAFCDS
TAF
KCDS 311736Z 3118/0118 35010KT P6SM SCT060
     FM010500 18006KT 2SM BR BKN007 OVC020
     FM011400 20006KT P6SM OVC060=



000
FTUS44 KLUB 311736
TAFLBB
TAF
KLBB 311736Z 3118/0118 02011KT P6SM SCT070
     FM010700 18006KT 2SM BR BKN007 OVC060
     FM011400 18006KT P6SM BKN035 OVC080=



000
FTUS44 KLUB 311736
TAFCDS
TAF
KCDS 311736Z 3118/0118 35010KT P6SM SCT060
     FM010500 18006KT 2SM BR BKN007 OVC020
     FM011400 20006KT P6SM OVC060=



000
FTUS44 KLUB 311736
TAFLBB
TAF
KLBB 311736Z 3118/0118 02011KT P6SM SCT070
     FM010700 18006KT 2SM BR BKN007 OVC060
     FM011400 18006KT P6SM BKN035 OVC080=



000
FTUS44 KLUB 311655 AAA
TAFCDS
TAF AMD
KCDS 311655Z 3117/0112 05008KT P6SM SCT060
      TEMPO 3117/3119 -TSRA BKN050CB
     FM010300 10005KT P6SM SCT050 BKN120=



000
FTUS44 KLUB 311120
TAFCDS
TAF
KCDS 311120Z 3112/0112 05008KT P6SM SCT060
     FM010300 10005KT P6SM SCT050 BKN120=



000
FTUS44 KLUB 311120
TAFCDS
TAF
KCDS 311120Z 3112/0112 05008KT P6SM SCT060
     FM010300 10005KT P6SM SCT050 BKN120=



000
FTUS44 KLUB 311120
TAFLBB
TAF
KLBB 311120Z 3112/0112 06009KT P6SM SCT070
     FM010500 10006KT P6SM SCT035 BKN080=



000
FTUS44 KLUB 311120
TAFLBB
TAF
KLBB 311120Z 3112/0112 06009KT P6SM SCT070
     FM010500 10006KT P6SM SCT035 BKN080=



000
FTUS44 KLUB 310520
TAFLBB
TAF
KLBB 310520Z 3106/0106 06008KT P6SM SCT050=



000
FTUS44 KLUB 310520
TAFLBB
TAF
KLBB 310520Z 3106/0106 06008KT P6SM SCT050=



000
FTUS44 KLUB 310520
TAFCDS
TAF
KCDS 310520Z 3106/0106 07009KT P6SM SCT060=



000
FTUS44 KLUB 310520
TAFCDS
TAF
KCDS 310520Z 3106/0106 07009KT P6SM SCT060=



000
FTUS44 KLUB 302326
TAFLBB
TAF
KLBB 302326Z 3100/3124 06008KT P6SM SCT060=



000
FTUS44 KLUB 302326
TAFLBB
TAF
KLBB 302326Z 3100/3124 06008KT P6SM SCT060=



000
FTUS44 KLUB 302326
TAFCDS
TAF
KCDS 302326Z 3100/3124 07009KT P6SM SCT060=



000
FTUS44 KLUB 302326
TAFCDS
TAF
KCDS 302326Z 3100/3124 07009KT P6SM SCT060=



000
FTUS44 KLUB 302143 AAA
TAFLBB
TAF AMD
KLBB 302143Z 3022/3118 06011KT P6SM SCT080
      TEMPO 3022/3024 -TSRA BKN070CB
     FM310200 12009KT P6SM BKN250=



000
FTUS44 KLUB 301736
TAFCDS
TAF
KCDS 301736Z 3018/3118 04011KT P6SM SCT100 SCT250
     FM302200 07011KT P6SM SCT050 BKN250
     FM310200 10009KT P6SM BKN250=



000
FTUS44 KLUB 301736
TAFLBB
TAF
KLBB 301736Z 3018/3118 03011KT P6SM SCT250
     FM302000 06011KT P6SM SCT100 BKN250
     FM302300 09011KT P6SM SCT050 BKN250
     FM310200 12009KT P6SM BKN250=



000
FTUS44 KLUB 301736
TAFCDS
TAF
KCDS 301736Z 3018/3118 04011KT P6SM SCT100 SCT250
     FM302200 07011KT P6SM SCT050 BKN250
     FM310200 10009KT P6SM BKN250=



000
FTUS44 KLUB 301736
TAFLBB
TAF
KLBB 301736Z 3018/3118 03011KT P6SM SCT250
     FM302000 06011KT P6SM SCT100 BKN250
     FM302300 09011KT P6SM SCT050 BKN250
     FM310200 12009KT P6SM BKN250=



000
FTUS44 KLUB 301529 AAA
TAFLBB
TAF AMD
KLBB 301529Z 3015/3112 02011KT P6SM SCT100 BKN250
     FM301800 05009KT P6SM SCT100 BKN250
     FM302100 08009KT P6SM SCT250=



000
FTUS44 KLUB 301529 AAA
TAFCDS
TAF AMD
KCDS 301529Z 3015/3112 34010KT P6SM SCT100 SCT250
     FM301800 01010KT P6SM SCT100
     FM302100 04009KT P6SM SKC=



000
FTUS44 KLUB 301120
TAFCDS
TAF
KCDS 301120Z 3012/3112 07008KT P6SM FEW060=



000
FTUS44 KLUB 301120
TAFLBB
TAF
KLBB 301120Z 3012/3112 10008KT P6SM FEW050=



000
FTUS44 KLUB 300520
TAFLBB
TAF
KLBB 300520Z 3006/3106 09008KT P6SM FEW050=



000
FTUS44 KLUB 300520
TAFLBB
TAF
KLBB 300520Z 3006/3106 09008KT P6SM FEW050=



000
FTUS44 KLUB 300520
TAFCDS
TAF
KCDS 300520Z 3006/3106 06008KT P6SM FEW060=



000
FTUS44 KLUB 300520
TAFCDS
TAF
KCDS 300520Z 3006/3106 06008KT P6SM FEW060=



000
FTUS44 KLUB 300155 AAA
TAFCDS
TAF AMD
KCDS 300155Z 3002/3024 06008KT P6SM FEW060
      TEMPO 3002/3004 -TSRA SCT050CB=



000
FTUS44 KLUB 300155 AAA
TAFCDS
TAF AMD
KCDS 300155Z 3002/3024 06008KT P6SM FEW060
      TEMPO 3002/3004 -TSRA SCT050CB=



000
FTUS44 KLUB 292320
TAFCDS
TAF
KCDS 292320Z 3000/3024 06008KT P6SM FEW060=



000
FTUS44 KLUB 292320
TAFLBB
TAF
KLBB 292320Z 3000/3024 07008KT P6SM FEW050=



000
FTUS44 KLUB 291700
TAFCDS
TAF
KCDS 291720Z 2918/3018 06009KT P6SM SCT060=



000
FTUS44 KLUB 291700
TAFLBB
TAF
KLBB 291720Z 2918/3018 06010KT P6SM SCT070=



000
FTUS44 KLUB 291700
TAFLBB
TAF
KLBB 291720Z 2918/3018 06010KT P6SM SCT070=



000
FTUS44 KLUB 291700
TAFCDS
TAF
KCDS 291720Z 2918/3018 06009KT P6SM SCT060=



000
FTUS44 KLUB 291120
TAFCDS
TAF
KCDS 291120Z 2912/3012 11009KT P6SM SKC=



000
FTUS44 KLUB 291120
TAFLBB
TAF
KLBB 291120Z 2912/3012 10010KT P6SM FEW250=



000
FTUS44 KLUB 291120
TAFCDS
TAF
KCDS 291120Z 2912/3012 11009KT P6SM SKC=



000
FTUS44 KLUB 291120
TAFLBB
TAF
KLBB 291120Z 2912/3012 10010KT P6SM FEW250=



    US Dept of Commerce
    National Oceanic and Atmospheric Administration
    National Weather Service
    1325 East West Highway
    Silver Spring, MD 20910
    Page Author: NWS Internet Services Team
Disclaimer
Information Quality
Credits
Glossary
Privacy Policy
Freedom of Information Act (FOIA)
About Us
Career Opportunities